Time;durP1;ratioP1;P1;durP2;ratioP2;P2;SDS_P1;SDS_P2;PMS_P1;PMS_P2;Temp;Humidity;BMP_temperature;BMP_pressure;BME280_temperature;BME280_humidity;BME280_pressure;Samples;Min_cycle;Max_cycle;Signal;HPM_P1;HPM_P2
2022/09/30 00:01:55;;;;;;;7.07;1.67;;;14.50;64.20;;;;;;6200561;28;20395;-79
2022/09/30 00:04:56;;;;;;;4.65;1.90;;;14.50;64.30;;;;;;6199824;28;20042;-79
2022/09/30 00:07:57;;;;;;;2.70;1.65;;;14.40;64.30;;;;;;6197575;28;20090;-79
2022/09/30 00:11:05;;;;;;;5.05;1.90;;;14.40;64.40;;;;;;6209087;28;20049;-79
2022/09/30 00:14:11;;;;;;;9.10;1.98;;;14.40;64.60;;;;;;6221689;28;20030;-79
2022/09/30 00:17:12;;;;;;;3.28;1.33;;;14.40;64.60;;;;;;6222625;28;20050;-79
2022/09/30 00:20:14;;;;;;;2.58;1.52;;;14.40;64.60;;;;;;6201176;28;20096;-79
2022/09/30 00:23:15;;;;;;;1.63;1.02;;;14.40;64.60;;;;;;6199064;28;20117;-79
2022/09/30 00:26:20;;;;;;;2.17;1.48;;;14.40;64.60;;;;;;6200481;28;20038;-79
2022/09/30 00:29:21;;;;;;;3.17;1.73;;;14.40;64.70;;;;;;6198851;28;20097;-79
2022/09/30 00:32:22;;;;;;;5.18;1.25;;;14.40;64.60;;;;;;6203777;28;20049;-79
2022/09/30 00:35:23;;;;;;;7.68;1.90;;;14.40;64.60;;;;;;6223878;28;20117;-79
2022/09/30 00:38:25;;;;;;;2.58;1.52;;;14.40;64.70;;;;;;6208203;28;20034;-79
2022/09/30 00:41:27;;;;;;;4.75;1.90;;;14.40;64.60;;;;;;6199628;28;20125;-80
2022/09/30 00:44:47;;;;;;;3.65;1.70;;;14.30;64.60;;;;;;6198075;28;20439;-79
2022/09/30 00:48:00;;;;;;;4.40;2.08;;;14.30;64.70;;;;;;6192245;28;20455;-78
2022/09/30 00:51:04;;;;;;;6.32;1.52;;;14.30;64.80;;;;;;6203737;28;20068;-77
2022/09/30 00:54:12;;;;;;;4.20;1.90;;;14.30;64.80;;;;;;6195215;28;20475;-78
2022/09/30 00:57:13;;;;;;;5.68;1.90;;;14.20;64.90;;;;;;6198910;28;20034;-78
2022/09/30 01:00:14;;;;;;;4.57;1.80;;;14.20;64.90;;;;;;6192863;28;20049;-79
2022/09/30 01:03:16;;;;;;;5.40;2.10;;;14.10;64.90;;;;;;6207354;28;20046;-78
2022/09/30 01:06:21;;;;;;;3.38;1.80;;;14.10;65.00;;;;;;6216883;28;20529;-78
2022/09/30 01:09:22;;;;;;;2.28;1.70;;;14.10;65.00;;;;;;6201837;28;20050;-78
2022/09/30 01:12:25;;;;;;;1.27;1.00;;;14.10;65.10;;;;;;6197848;28;20050;-79
2022/09/30 01:15:43;;;;;;;2.95;1.40;;;14.10;65.10;;;;;;6199034;28;20367;-79
2022/09/30 01:19:23;;;;;;;3.67;1.65;;;14.00;65.10;;;;;;6206483;28;20049;-78
2022/09/30 01:22:45;;;;;;;3.30;1.60;;;14.00;65.20;;;;;;6199016;28;20053;-79
2022/09/30 01:25:59;;;;;;;8.32;1.85;;;14.00;65.20;;;;;;6193177;28;20456;-78
2022/09/30 01:29:16;;;;;;;3.88;1.80;;;14.00;65.20;;;;;;6196426;28;20490;-78
2022/09/30 01:32:32;;;;;;;2.88;1.65;;;13.90;65.30;;;;;;6198257;28;20084;-78
2022/09/30 01:35:38;;;;;;;3.85;1.88;;;13.90;65.40;;;;;;6191482;28;20483;-78
2022/09/30 01:39:00;;;;;;;2.95;1.85;;;13.90;65.40;;;;;;6192994;28;20034;-78
2022/09/30 01:42:23;;;;;;;4.63;2.28;;;14.00;65.40;;;;;;6218424;28;20050;-78
2022/09/30 01:45:28;;;;;;;2.78;1.83;;;14.00;65.40;;;;;;6218647;28;20120;-78
2022/09/30 01:48:32;;;;;;;4.22;2.03;;;14.00;65.30;;;;;;6206191;28;20486;-78
2022/09/30 01:51:39;;;;;;;3.83;2.22;;;13.90;65.20;;;;;;6196558;28;20070;-80
2022/09/30 01:54:58;;;;;;;4.65;2.00;;;14.10;65.20;;;;;;6195425;28;20490;-80
2022/09/30 01:58:18;;;;;;;4.38;2.10;;;14.10;65.20;;;;;;6194217;28;20083;-79
2022/09/30 02:01:26;;;;;;;3.78;1.55;;;14.10;65.00;;;;;;6191159;28;20056;-80
2022/09/30 02:04:41;;;;;;;4.28;1.88;;;14.10;65.00;;;;;;6181940;28;20061;-79
2022/09/30 02:08:05;;;;;;;4.68;1.58;;;14.10;65.00;;;;;;6177928;28;20515;-79
2022/09/30 02:11:25;;;;;;;7.93;1.88;;;14.20;64.90;;;;;;6195533;28;20043;-79
2022/09/30 02:14:38;;;;;;;3.20;1.73;;;14.30;65.00;;;;;;6200657;28;20045;-79
2022/09/30 02:17:59;;;;;;;3.88;1.73;;;14.30;64.90;;;;;;6216383;28;20044;-80
2022/09/30 02:21:03;;;;;;;2.83;1.45;;;14.30;64.90;;;;;;6194021;28;20116;-80
2022/09/30 02:24:10;;;;;;;3.55;1.67;;;14.30;64.70;;;;;;6194630;28;20038;-80
2022/09/30 02:27:24;;;;;;;3.08;1.20;;;14.40;64.70;;;;;;6177772;28;20026;-79
2022/09/30 02:30:27;;;;;;;1.40;1.17;;;14.40;64.60;;;;;;6201115;28;20033;-80
2022/09/30 02:33:33;;;;;;;3.53;1.30;;;14.40;64.40;;;;;;6211531;28;20511;-79
2022/09/30 02:36:44;;;;;;;2.65;1.27;;;14.40;64.40;;;;;;6213828;28;20138;-80
2022/09/30 02:39:55;;;;;;;2.90;1.80;;;14.40;64.30;;;;;;6191996;28;20606;-79
2022/09/30 02:42:56;;;;;;;2.47;1.30;;;14.40;64.20;;;;;;6189286;28;20452;-79
2022/09/30 02:46:20;;;;;;;3.40;0.98;;;14.30;64.20;;;;;;6198241;28;20191;-79
2022/09/30 02:49:34;;;;;;;4.70;1.40;;;14.30;64.30;;;;;;6210821;28;20038;-79
2022/09/30 02:53:02;;;;;;;3.90;1.27;;;14.30;64.30;;;;;;6188370;28;20035;-79
2022/09/30 02:56:17;;;;;;;4.30;1.48;;;14.20;64.30;;;;;;6193282;28;20046;-79
2022/09/30 02:59:19;;;;;;;1.60;1.30;;;14.20;64.40;;;;;;6175188;28;20039;-79
2022/09/30 03:02:20;;;;;;;3.08;1.75;;;14.20;64.40;;;;;;6195818;28;20129;-79
2022/09/30 03:05:21;;;;;;;4.40;1.52;;;14.20;64.50;;;;;;6226096;28;20050;-79
2022/09/30 03:08:23;;;;;;;18.55;1.90;;;14.10;64.60;;;;;;6211378;28;20092;-79
2022/09/30 03:11:26;;;;;;;3.50;1.80;;;14.10;64.60;;;;;;6198783;28;20046;-80
2022/09/30 03:14:54;;;;;;;4.93;1.92;;;14.10;64.70;;;;;;6180061;28;20049;-79
2022/09/30 03:18:22;;;;;;;2.70;1.83;;;14.10;64.80;;;;;;6197911;28;20058;-79
2022/09/30 03:21:48;;;;;;;3.00;2.10;;;14.10;64.60;;;;;;6193386;28;20049;-79
2022/09/30 03:25:02;;;;;;;4.82;1.90;;;14.10;64.70;;;;;;6206316;28;20058;-79
2022/09/30 03:28:21;;;;;;;9.00;1.95;;;14.10;64.60;;;;;;6219913;28;20619;-79
2022/09/30 03:31:40;;;;;;;2.45;1.67;;;14.10;64.70;;;;;;6198904;28;20065;-79
2022/09/30 03:35:00;;;;;;;2.70;1.55;;;14.10;64.60;;;;;;6203143;28;20807;-79
2022/09/30 03:38:22;;;;;;;3.08;1.77;;;14.10;64.50;;;;;;6196054;28;20096;-79
2022/09/30 03:41:53;;;;;;;5.53;1.98;;;14.10;64.50;;;;;;6196462;28;20049;-79
2022/09/30 03:45:10;;;;;;;4.68;2.15;;;14.20;64.50;;;;;;6156544;28;20121;-79
2022/09/30 03:48:14;;;;;;;2.88;1.80;;;14.20;64.50;;;;;;6161569;28;20042;-78
2022/09/30 03:51:16;;;;;;;2.03;1.75;;;14.30;64.40;;;;;;6178308;28;20138;-79
2022/09/30 03:54:17;;;;;;;2.78;1.75;;;14.30;64.30;;;;;;6192786;28;20042;-79
2022/09/30 03:57:18;;;;;;;6.85;1.85;;;14.30;64.30;;;;;;6185818;28;20042;-79
2022/09/30 04:00:19;;;;;;;2.63;1.70;;;14.30;64.30;;;;;;6151145;28;20034;-79
2022/09/30 04:03:21;;;;;;;4.57;1.55;;;14.30;64.30;;;;;;6135498;28;20038;-79
2022/09/30 04:06:24;;;;;;;6.43;1.50;;;14.30;64.30;;;;;;6141453;28;20047;-79
2022/09/30 04:09:26;;;;;;;4.75;1.45;;;14.30;64.30;;;;;;6142327;28;20438;-79
2022/09/30 04:12:27;;;;;;;2.35;1.13;;;14.30;64.40;;;;;;6151154;28;20495;-79
2022/09/30 04:15:28;;;;;;;1.33;1.00;;;14.30;64.40;;;;;;6156787;28;20039;-78
2022/09/30 04:18:31;;;;;;;2.80;1.33;;;14.20;64.30;;;;;;6180826;28;20042;-79
2022/09/30 04:21:32;;;;;;;6.53;1.50;;;14.20;64.30;;;;;;6180610;28;20042;-79
2022/09/30 04:24:33;;;;;;;3.80;1.48;;;14.20;64.30;;;;;;6202949;28;20045;-79
2022/09/30 04:27:35;;;;;;;2.25;1.50;;;14.20;64.30;;;;;;6194776;28;20062;-78
2022/09/30 04:30:37;;;;;;;7.30;1.35;;;14.20;64.30;;;;;;6217740;28;20030;-79
2022/09/30 04:33:39;;;;;;;2.33;1.10;;;14.20;64.40;;;;;;6212062;28;20072;-79
2022/09/30 04:36:40;;;;;;;12.82;3.63;;;14.20;64.40;;;;;;6216787;28;20148;-79
2022/09/30 04:39:43;;;;;;;2.75;1.20;;;14.20;64.30;;;;;;6195276;28;20042;-81
2022/09/30 04:42:44;;;;;;;1.52;1.13;;;14.20;64.30;;;;;;6206374;28;20041;-79
2022/09/30 04:45:45;;;;;;;1.33;0.90;;;14.20;64.30;;;;;;6180537;28;20411;-79
2022/09/30 04:48:47;;;;;;;3.85;1.50;;;14.20;64.20;;;;;;6207167;28;20041;-79
2022/09/30 04:51:48;;;;;;;4.10;1.00;;;14.10;64.20;;;;;;6210530;28;20045;-79
2022/09/30 04:54:49;;;;;;;10.85;1.25;;;14.10;64.40;;;;;;6207948;28;20034;-80
2022/09/30 04:57:50;;;;;;;4.07;1.10;;;14.10;64.40;;;;;;6192857;28;20038;-80
2022/09/30 05:00:51;;;;;;;3.45;1.40;;;14.00;64.50;;;;;;6204737;28;20045;-79
2022/09/30 05:03:53;;;;;;;2.22;1.45;;;13.90;64.60;;;;;;6202284;28;20049;-81
2022/09/30 05:06:54;;;;;;;4.65;1.58;;;13.90;64.80;;;;;;6207323;28;20057;-80
2022/09/30 05:09:56;;;;;;;1.73;1.23;;;13.90;65.00;;;;;;6210893;28;20034;-80
2022/09/30 05:12:58;;;;;;;2.33;1.30;;;13.80;65.10;;;;;;6212258;28;20034;-79
2022/09/30 05:16:00;;;;;;;5.85;1.23;;;13.80;65.10;;;;;;6214847;28;20041;-82
2022/09/30 05:19:02;;;;;;;4.55;1.13;;;13.80;65.20;;;;;;6211523;28;20088;-80
2022/09/30 05:22:03;;;;;;;1.75;1.30;;;13.80;65.20;;;;;;6210996;28;20045;-79
2022/09/30 05:25:04;;;;;;;2.08;1.20;;;13.80;65.20;;;;;;6207225;28;20038;-79
2022/09/30 05:28:05;;;;;;;1.55;1.13;;;13.80;65.10;;;;;;6205959;28;20058;-78
2022/09/30 05:31:07;;;;;;;2.80;1.40;;;13.90;65.10;;;;;;6196840;28;20495;-78
2022/09/30 05:34:08;;;;;;;2.85;1.13;;;13.90;65.00;;;;;;6175398;28;20096;-79
2022/09/30 05:37:09;;;;;;;4.22;1.70;;;14.00;64.80;;;;;;6180019;28;20038;-77
2022/09/30 05:40:10;;;;;;;3.25;1.67;;;14.10;64.60;;;;;;6193490;28;20046;-77
2022/09/30 05:43:14;;;;;;;5.35;2.17;;;14.10;64.50;;;;;;6200853;28;20060;-78
2022/09/30 05:46:17;;;;;;;5.72;1.90;;;14.20;64.50;;;;;;6183264;28;20049;-76
2022/09/30 05:49:18;;;;;;;4.18;2.17;;;14.30;64.50;;;;;;6186083;28;20034;-76
2022/09/30 05:52:21;;;;;;;3.22;1.67;;;14.40;64.40;;;;;;6185850;28;20041;-77
2022/09/30 05:55:22;;;;;;;3.20;1.50;;;14.50;64.20;;;;;;6178484;28;20046;-76
2022/09/30 05:58:23;;;;;;;5.13;1.42;;;14.50;64.00;;;;;;6196272;28;20034;-78
2022/09/30 06:01:24;;;;;;;9.05;1.38;;;14.50;63.80;;;;;;6200443;28;20363;-77
2022/09/30 06:04:25;;;;;;;2.33;1.42;;;14.50;63.60;;;;;;6203992;28;20058;-77
2022/09/30 06:07:27;;;;;;;1.23;1.00;;;14.60;63.60;;;;;;6186684;28;20077;-77
2022/09/30 06:10:29;;;;;;;2.15;1.38;;;14.60;63.50;;;;;;6190623;28;20387;-75
2022/09/30 06:13:32;;;;;;;5.78;1.25;;;14.60;63.50;;;;;;6200813;28;20037;-75
2022/09/30 06:16:33;;;;;;;3.13;1.25;;;14.60;63.40;;;;;;6203209;28;20044;-77
2022/09/30 06:19:34;;;;;;;7.15;1.17;;;14.60;63.30;;;;;;6194271;28;20121;-77
2022/09/30 06:22:35;;;;;;;3.90;1.45;;;14.60;63.20;;;;;;6195970;28;20483;-75
2022/09/30 06:25:36;;;;;;;1.70;0.85;;;14.60;63.10;;;;;;6197437;28;20125;-75
2022/09/30 06:28:37;;;;;;;6.07;1.63;;;14.60;63.00;;;;;;6198313;28;20175;-77
2022/09/30 06:31:38;;;;;;;7.15;1.60;;;14.60;62.80;;;;;;6177332;28;20056;-77
2022/09/30 06:34:39;;;;;;;3.92;1.45;;;14.70;62.70;;;;;;6188141;28;20488;-77
2022/09/30 06:37:40;;;;;;;3.90;1.42;;;14.70;62.60;;;;;;6183090;28;20386;-76
2022/09/30 06:40:43;;;;;;;1.63;1.10;;;14.70;62.50;;;;;;6199648;28;20471;-76
2022/09/30 06:43:44;;;;;;;7.45;1.67;;;14.80;62.60;;;;;;6198879;28;20207;-77
2022/09/30 06:46:45;;;;;;;1.63;1.20;;;14.90;62.40;;;;;;6200733;28;20042;-76
2022/09/30 06:49:46;;;;;;;2.40;1.40;;;14.90;62.30;;;;;;6212616;28;20117;-76
2022/09/30 06:52:47;;;;;;;9.43;1.90;;;14.90;62.20;;;;;;6214636;28;20069;-76
2022/09/30 06:55:54;;;;;;;4.43;1.55;;;15.00;62.10;;;;;;6205676;28;20038;-76
2022/09/30 06:58:56;;;;;;;4.78;1.70;;;15.00;62.00;;;;;;6221999;28;20061;-78
2022/09/30 07:01:56;;;;;;;3.65;1.73;;;15.10;61.80;;;;;;6218155;28;20042;-76
2022/09/30 07:04:57;;;;;;;6.90;2.28;;;15.10;61.60;;;;;;6219832;28;20041;-77
2022/09/30 07:07:59;;;;;;;4.95;2.50;;;15.10;61.60;;;;;;6216015;28;20057;-77
2022/09/30 07:11:03;;;;;;;6.13;3.00;;;15.20;61.60;;;;;;6217707;28;20064;-77
2022/09/30 07:14:05;;;;;;;6.93;2.90;;;15.30;61.50;;;;;;6206992;28;20087;-77
2022/09/30 07:17:06;;;;;;;4.97;2.75;;;15.30;61.40;;;;;;6210667;28;20113;-76
2022/09/30 07:20:07;;;;;;;6.90;3.30;;;15.30;61.20;;;;;;6218554;28;20113;-76
2022/09/30 07:23:09;;;;;;;4.93;3.10;;;15.40;61.20;;;;;;6207724;28;20081;-76
2022/09/30 07:26:10;;;;;;;5.47;2.83;;;15.50;61.20;;;;;;6199608;28;20087;-77
2022/09/30 07:29:12;;;;;;;14.63;3.58;;;15.60;61.20;;;;;;6201080;28;20093;-75
2022/09/30 07:32:14;;;;;;;6.22;3.25;;;15.70;61.90;;;;;;6217687;28;20070;-76
2022/09/30 07:35:15;;;;;;;6.05;2.67;;;15.80;60.90;;;;;;6219246;28;20069;-75
2022/09/30 07:38:18;;;;;;;5.07;2.95;;;15.90;60.80;;;;;;6213658;28;20038;-75
2022/09/30 07:41:25;;;;;;;5.53;2.70;;;16.00;60.50;;;;;;6193066;28;20089;-76
2022/09/30 07:44:28;;;;;;;5.27;2.40;;;16.00;60.20;;;;;;6198703;28;20037;-77
2022/09/30 07:47:29;;;;;;;4.50;2.95;;;16.10;59.80;;;;;;6200891;28;20848;-76
2022/09/30 07:50:30;;;;;;;5.68;2.67;;;16.20;59.70;;;;;;6218112;28;20113;-77
2022/09/30 07:53:32;;;;;;;5.32;2.17;;;16.20;59.50;;;;;;6222831;28;20038;-76
2022/09/30 07:56:37;;;;;;;4.68;2.53;;;16.30;59.30;;;;;;6208173;28;20041;-75
2022/09/30 07:59:40;;;;;;;3.63;2.10;;;16.30;59.10;;;;;;6197481;28;20042;-76
2022/09/30 08:02:41;;;;;;;8.23;2.65;;;16.40;58.90;;;;;;6196488;28;20375;-77
2022/09/30 08:05:47;;;;;;;4.03;1.85;;;16.50;58.80;;;;;;6206210;28;20030;-77
2022/09/30 08:08:52;;;;;;;4.57;1.70;;;16.50;58.60;;;;;;6198178;28;20065;-76
2022/09/30 08:11:53;;;;;;;11.20;2.03;;;16.50;58.50;;;;;;6198146;28;20066;-76
2022/09/30 08:14:54;;;;;;;15.10;2.33;;;16.50;58.30;;;;;;6198036;28;20096;-76
2022/09/30 08:17:55;;;;;;;5.00;2.15;;;16.50;58.30;;;;;;6198850;28;20046;-77
2022/09/30 08:21:01;;;;;;;3.47;2.10;;;16.60;58.40;;;;;;6199009;28;20054;-77
2022/09/30 08:24:02;;;;;;;4.45;1.60;;;16.60;58.10;;;;;;6200079;28;20066;-78
2022/09/30 08:27:04;;;;;;;2.78;1.40;;;16.60;57.80;;;;;;6202399;28;20053;-78
2022/09/30 08:30:06;;;;;;;6.65;1.60;;;16.60;57.70;;;;;;6222100;28;20061;-78
2022/09/30 08:33:07;;;;;;;7.90;2.08;;;16.50;57.60;;;;;;6209129;28;20058;-77
2022/09/30 08:36:10;;;;;;;4.68;2.03;;;16.50;57.60;;;;;;6217739;28;20092;-76
2022/09/30 08:39:12;;;;;;;6.10;2.22;;;16.50;57.60;;;;;;6199010;28;20061;-77
2022/09/30 08:42:24;;;;;;;7.82;1.55;;;16.50;57.50;;;;;;6199400;28;20072;-75
2022/09/30 08:46:03;;;;;;;6.63;2.60;;;16.50;57.40;;;;;;6199494;28;20339;-76
2022/09/30 08:49:24;;;;;;;5.03;2.03;;;16.60;57.40;;;;;;6140457;28;20035;-78
2022/09/30 08:52:40;;;;;;;8.60;2.35;;;16.70;57.20;;;;;;6189360;28;20043;-76
2022/09/30 08:55:44;;;;;;;5.95;2.38;;;16.70;57.10;;;;;;6174392;28;20046;-75
2022/09/30 08:58:48;;;;;;;4.68;2.53;;;16.80;57.00;;;;;;6190391;28;20120;-76
2022/09/30 09:01:57;;;;;;;5.32;2.05;;;16.90;57.00;;;;;;6186988;28;20045;-76
2022/09/30 09:05:03;;;;;;;10.13;2.90;;;16.90;56.90;;;;;;6186362;28;20038;-77
2022/09/30 09:08:25;;;;;;;4.10;2.60;;;17.00;56.70;;;;;;6156942;28;20503;-77
2022/09/30 09:11:44;;;;;;;6.47;2.00;;;17.10;56.70;;;;;;6165053;28;20051;-77
2022/09/30 09:15:08;;;;;;;5.47;1.90;;;17.10;56.70;;;;;;6151681;28;20047;-76
2022/09/30 09:18:29;;;;;;;3.30;2.47;;;17.10;56.60;;;;;;6154076;28;20039;-77
2022/09/30 09:21:55;;;;;;;12.82;3.13;;;17.20;56.50;;;;;;6167820;28;20038;-77
2022/09/30 09:24:59;;;;;;;7.43;3.08;;;17.20;56.30;;;;;;6194328;28;20041;-77
2022/09/30 09:28:04;;;;;;;6.95;1.90;;;17.20;56.30;;;;;;6194209;28;20038;-77
2022/09/30 09:31:15;;;;;;;8.27;2.22;;;17.30;56.30;;;;;;6173983;28;20045;-75
2022/09/30 09:34:16;;;;;;;8.52;1.80;;;17.20;56.20;;;;;;6210567;28;20041;-78
2022/09/30 09:41:19;;;;;;;5.68;2.30;;;17.20;56.30;;;;;;6184210;28;20023;-77
2022/09/30 09:44:32;;;;;;;7.57;2.33;;;17.20;56.30;;;;;;6191962;28;20088;-77
2022/09/30 09:47:33;;;;;;;6.68;3.13;;;17.20;56.30;;;;;;6189676;28;20030;-77
2022/09/30 09:50:48;;;;;;;13.38;3.42;;;17.10;56.20;;;;;;6213110;28;20030;-77
2022/09/30 09:53:59;;;;;;;3.85;2.13;;;17.10;56.30;;;;;;6211407;28;20473;-78
2022/09/30 09:57:10;;;;;;;6.75;3.25;;;17.10;56.30;;;;;;6218880;28;20528;-78
2022/09/30 10:03:44;;;;;;;4.90;2.13;;;17.20;56.20;;;;;;6204558;28;20463;-77
2022/09/30 10:06:59;;;;;;;5.22;2.83;;;17.30;56.10;;;;;;6217998;28;20099;-77
2022/09/30 10:10:20;;;;;;;7.40;3.58;;;17.30;56.00;;;;;;6208228;28;20121;-76
2022/09/30 10:13:28;;;;;;;4.68;2.65;;;17.40;56.00;;;;;;6184771;28;20464;-77
2022/09/30 10:16:36;;;;;;;6.38;3.00;;;17.40;55.90;;;;;;6195023;28;20057;-77
2022/09/30 10:19:39;;;;;;;;;;;17.50;56.00;;;;;;6208684;28;20129;-77
2022/09/30 10:22:40;;;;;;;8.00;2.67;;;17.60;55.90;;;;;;6214209;28;20004;-77
2022/09/30 10:25:58;;;;;;;7.10;3.13;;;17.70;55.70;;;;;;6182885;28;20490;-77
2022/09/30 10:29:03;;;;;;;6.13;2.93;;;17.70;55.70;;;;;;6225876;28;20065;-77
2022/09/30 10:32:08;;;;;;;5.57;2.67;;;17.70;55.60;;;;;;6192320;28;20049;-77
2022/09/30 10:35:20;;;;;;;4.88;2.88;;;17.70;55.40;;;;;;6206402;28;20045;-77
2022/09/30 10:38:25;;;;;;;4.63;2.53;;;17.60;55.30;;;;;;6206326;28;20130;-77
2022/09/30 10:41:28;;;;;;;5.82;2.83;;;17.50;55.20;;;;;;6188976;28;20086;-77
2022/09/30 10:44:30;;;;;;;5.88;2.90;;;17.40;55.10;;;;;;6192232;28;20042;-76
2022/09/30 10:47:32;;;;;;;5.75;2.53;;;17.30;55.10;;;;;;6191587;28;20188;-77
2022/09/30 10:50:33;;;;;;;7.47;2.50;;;17.20;55.10;;;;;;6200929;28;20038;-77
2022/09/30 10:53:40;;;;;;;5.35;2.50;;;17.20;55.20;;;;;;6217714;28;20455;-79
2022/09/30 10:56:44;;;;;;;4.63;2.55;;;17.10;55.10;;;;;;6218010;28;20124;-77
2022/09/30 10:59:47;;;;;;;5.93;2.30;;;17.10;55.20;;;;;;6218361;28;20172;-77
2022/09/30 11:03:18;;;;;;;4.68;2.40;;;17.00;55.30;;;;;;6212618;28;20116;-76
2022/09/30 11:06:21;;;;;;;5.50;2.42;;;17.00;55.40;;;;;;6187118;28;20113;-78
2022/09/30 11:09:59;;;;;;;2.88;1.90;;;16.90;55.40;;;;;;6189200;28;20396;-77
2022/09/30 11:13:18;;;;;;;4.20;2.55;;;16.90;55.60;;;;;;6153629;28;20038;-76
2022/09/30 11:16:34;;;;;;;5.00;2.40;;;16.90;55.70;;;;;;6176222;28;20043;-76
2022/09/30 11:19:40;;;;;;;3.83;2.38;;;16.90;55.80;;;;;;6179361;28;20042;-77
2022/09/30 11:22:46;;;;;;;9.50;2.58;;;17.00;55.80;;;;;;6172113;28;20444;-77
2022/09/30 11:26:06;;;;;;;3.88;1.77;;;17.10;55.50;;;;;;6173919;28;20464;-78
2022/09/30 11:29:37;;;;;;;11.18;2.15;;;17.20;55.40;;;;;;6155392;28;20346;-77
2022/09/30 11:33:02;;;;;;;4.35;2.22;;;17.30;55.20;;;;;;6155091;28;20039;-82
2022/09/30 11:36:20;;;;;;;4.30;2.22;;;17.40;54.90;;;;;;6192735;28;20142;-76
2022/09/30 11:39:27;;;;;;;3.72;2.35;;;17.60;54.80;;;;;;6180046;28;20101;-77
2022/09/30 11:42:45;;;;;;;4.60;2.47;;;17.60;54.40;;;;;;6194034;28;20034;-78
2022/09/30 11:45:55;;;;;;;4.05;2.50;;;17.80;54.30;;;;;;6170010;28;20035;-78
2022/09/30 11:49:05;;;;;;;3.85;1.98;;;17.90;54.00;;;;;;6186087;28;20053;-77
2022/09/30 11:52:26;;;;;;;4.10;2.30;;;18.00;53.80;;;;;;6217393;28;20467;-77
2022/09/30 11:55:49;;;;;;;4.75;2.38;;;18.00;53.60;;;;;;6216464;28;20529;-78
2022/09/30 11:58:55;;;;;;;3.47;2.47;;;18.10;53.40;;;;;;6216468;28;20033;-77
2022/09/30 12:02:00;;;;;;;4.70;2.35;;;18.20;53.20;;;;;;6201588;28;20435;-76
2022/09/30 12:05:09;;;;;;;20.75;9.07;;;18.30;53.10;;;;;;6219523;28;20054;-77
2022/09/30 12:08:21;;;;;;;3.83;2.15;;;18.40;52.80;;;;;;6210309;28;20173;-78
2022/09/30 12:11:46;;;;;;;5.18;2.15;;;18.50;52.40;;;;;;6198047;28;20038;-77
2022/09/30 12:15:01;;;;;;;3.28;2.00;;;18.50;51.90;;;;;;6179472;28;20146;-77
2022/09/30 12:18:13;;;;;;;5.93;2.13;;;18.60;51.80;;;;;;6201926;28;20037;-77
2022/09/30 12:21:19;;;;;;;3.03;2.00;;;18.50;51.70;;;;;;6190855;28;20074;-77
2022/09/30 12:24:24;;;;;;;3.45;2.20;;;18.50;51.70;;;;;;6197165;28;20057;-76
2022/09/30 12:27:34;;;;;;;6.90;1.90;;;18.50;51.70;;;;;;6192825;28;20132;-76
2022/09/30 12:30:35;;;;;;;2.95;1.80;;;18.60;51.60;;;;;;6199385;28;20439;-78
2022/09/30 12:34:10;;;;;;;6.63;2.38;;;18.70;51.40;;;;;;6205906;28;20352;-76
2022/09/30 12:37:25;;;;;;;3.10;2.00;;;18.60;51.20;;;;;;6196308;28;20462;-78
2022/09/30 12:40:47;;;;;;;2.08;1.48;;;18.50;51.30;;;;;;6161225;28;20063;-78
2022/09/30 12:43:48;;;;;;;6.97;1.70;;;18.40;51.60;;;;;;6192306;28;20050;-77
2022/09/30 12:47:05;;;;;;;3.20;1.60;;;18.30;51.70;;;;;;6180706;28;20038;-78
2022/09/30 12:50:08;;;;;;;2.00;1.50;;;18.30;51.70;;;;;;6182329;28;20061;-77
2022/09/30 12:53:27;;;;;;;2.03;1.40;;;18.30;51.60;;;;;;6187062;28;20058;-78
2022/09/30 12:56:30;;;;;;;2.83;2.15;;;18.30;51.70;;;;;;6195371;28;20041;-77
2022/09/30 12:59:46;;;;;;;2.50;1.90;;;18.20;51.70;;;;;;6168549;28;20097;-78
2022/09/30 13:02:54;;;;;;;3.75;2.00;;;18.10;51.80;;;;;;6196863;28;20077;-78
2022/09/30 13:05:56;;;;;;;4.28;1.55;;;18.00;51.90;;;;;;6194547;28;20157;-78
2022/09/30 13:09:16;;;;;;;4.57;1.55;;;17.90;52.00;;;;;;6193817;28;20038;-77
2022/09/30 13:12:26;;;;;;;2.10;1.60;;;17.90;52.30;;;;;;6184970;28;20050;-78
2022/09/30 13:15:27;;;;;;;3.47;1.67;;;17.80;52.40;;;;;;6202584;28;20113;-77
2022/09/30 13:18:31;;;;;;;1.77;1.33;;;17.70;52.50;;;;;;6211261;28;20482;-78
2022/09/30 13:21:32;;;;;;;1.95;1.40;;;17.60;52.60;;;;;;6212043;28;20124;-76
2022/09/30 13:28:14;;;;;;;2.28;1.40;;;17.40;52.90;;;;;;6218956;28;20061;-76
2022/09/30 13:31:23;;;;;;;2.55;1.48;;;17.40;53.00;;;;;;6201321;28;20041;-76
2022/09/30 13:34:29;;;;;;;2.20;1.42;;;17.30;53.10;;;;;;6193000;28;20031;-78
2022/09/30 13:37:36;;;;;;;2.97;1.52;;;17.20;53.10;;;;;;6190097;28;20046;-77
2022/09/30 13:40:50;;;;;;;2.90;1.30;;;17.20;53.30;;;;;;6206240;28;20420;-77
2022/09/30 13:44:05;;;;;;;2.88;1.77;;;17.10;53.50;;;;;;6193292;28;20052;-78
2022/09/30 13:47:20;;;;;;;2.35;1.65;;;17.10;53.60;;;;;;6209536;28;20061;-77
2022/09/30 13:50:45;;;;;;;3.63;1.80;;;17.00;53.80;;;;;;6194247;28;20113;-76
2022/09/30 13:53:50;;;;;;;4.68;1.83;;;17.00;53.90;;;;;;6171768;28;20050;-78
2022/09/30 13:56:53;;;;;;;2.20;1.48;;;17.00;53.90;;;;;;6193266;28;20042;-77
2022/09/30 14:00:10;;;;;;;2.20;1.50;;;17.00;54.00;;;;;;6216074;28;20045;-77
2022/09/30 14:03:51;;;;;;;10.02;1.77;;;16.90;54.10;;;;;;6212257;28;20129;-77
2022/09/30 14:07:01;;;;;;;2.92;1.85;;;16.90;54.20;;;;;;6185920;28;20038;-78
2022/09/30 14:10:33;;;;;;;4.05;1.85;;;16.90;54.20;;;;;;6189011;28;20034;-77
2022/09/30 14:14:02;;;;;;;3.78;1.52;;;16.90;54.30;;;;;;6192755;28;20042;-75
2022/09/30 14:17:14;;;;;;;3.97;1.45;;;16.90;54.30;;;;;;6193646;28;20502;-78
2022/09/30 14:20:34;;;;;;;2.60;1.27;;;16.90;54.40;;;;;;6207341;28;20034;-78
2022/09/30 14:23:36;;;;;;;4.05;1.60;;;16.80;54.40;;;;;;6218460;28;20042;-77
2022/09/30 14:27:01;;;;;;;2.72;1.48;;;16.80;54.50;;;;;;6217492;28;20111;-77
2022/09/30 14:30:18;;;;;;;2.88;1.48;;;16.80;54.60;;;;;;6215644;28;20048;-77
2022/09/30 14:33:24;;;;;;;2.60;1.50;;;16.80;54.70;;;;;;6201787;28;20038;-77
2022/09/30 14:36:25;;;;;;;2.72;1.55;;;16.80;54.70;;;;;;6192186;28;20030;-76
2022/09/30 14:39:30;;;;;;;2.20;1.38;;;16.80;54.80;;;;;;6192957;28;20181;-77
2022/09/30 14:42:40;;;;;;;2.78;1.63;;;16.80;54.80;;;;;;6168709;28;20041;-77
2022/09/30 14:45:44;;;;;;;1.65;1.40;;;16.80;54.70;;;;;;6201207;28;20121;-76
2022/09/30 14:48:49;;;;;;;5.85;1.52;;;16.80;54.80;;;;;;6199244;28;20030;-77
2022/09/30 14:51:50;;;;;;;2.15;1.30;;;16.80;54.90;;;;;;6194728;28;20038;-77
2022/09/30 14:54:51;;;;;;;7.60;1.80;;;16.80;54.90;;;;;;6215054;28;20046;-77
2022/09/30 14:57:54;;;;;;;1.63;1.45;;;16.80;55.00;;;;;;6215354;28;20088;-77
2022/09/30 15:01:20;;;;;;;1.58;1.40;;;16.80;55.00;;;;;;6224909;28;20034;-75
2022/09/30 15:04:26;;;;;;;3.47;1.60;;;16.80;55.00;;;;;;6198754;28;20054;-78
2022/09/30 15:07:28;;;;;;;3.75;1.70;;;16.90;55.10;;;;;;6194184;28;20058;-76
2022/09/30 15:10:30;;;;;;;6.07;2.03;;;16.90;55.10;;;;;;6198179;28;20040;-78
2022/09/30 15:13:31;;;;;;;3.78;2.25;;;16.90;55.10;;;;;;6196119;28;20040;-77
2022/09/30 15:16:33;;;;;;;1.75;1.60;;;16.90;55.10;;;;;;6215648;28;20041;-77
2022/09/30 15:19:42;;;;;;;4.53;1.80;;;16.90;55.20;;;;;;6214054;28;20050;-77
2022/09/30 15:22:44;;;;;;;6.07;2.00;;;16.90;55.30;;;;;;6221403;28;20046;-77
2022/09/30 15:25:45;;;;;;;4.00;2.22;;;16.90;55.40;;;;;;6212956;28;20038;-77
2022/09/30 15:28:46;;;;;;;2.08;1.52;;;16.80;55.40;;;;;;6196464;28;20038;-76
2022/09/30 15:31:57;;;;;;;3.75;1.95;;;16.80;55.40;;;;;;6194867;28;20547;-78
2022/09/30 15:35:05;;;;;;;4.20;2.15;;;16.80;55.40;;;;;;6194807;28;20093;-77
2022/09/30 15:38:23;;;;;;;4.57;2.50;;;16.80;56.00;;;;;;6196748;28;20057;-77
2022/09/30 15:41:25;;;;;;;4.75;2.50;;;16.80;55.40;;;;;;6196866;28;20070;-76
2022/09/30 15:44:37;;;;;;;5.60;2.17;;;16.90;55.40;;;;;;6196494;28;20106;-77
2022/09/30 15:48:01;;;;;;;3.78;2.03;;;16.90;55.40;;;;;;6199740;28;20057;-78
2022/09/30 15:51:23;;;;;;;6.47;2.25;;;16.90;55.30;;;;;;6194348;28;20034;-77
2022/09/30 15:54:32;;;;;;;3.67;2.08;;;16.90;55.30;;;;;;6197125;28;20113;-77
2022/09/30 15:57:48;;;;;;;5.78;2.20;;;16.90;55.20;;;;;;6179251;28;20054;-78
2022/09/30 16:00:51;;;;;;;4.05;2.67;;;16.90;55.20;;;;;;6191749;28;20042;-77
2022/09/30 16:03:58;;;;;;;2.63;1.77;;;16.90;55.30;;;;;;6193591;28;20049;-76
2022/09/30 16:07:07;;;;;;;3.35;2.28;;;16.90;55.40;;;;;;6196930;28;20125;-78
2022/09/30 16:10:18;;;;;;;3.80;1.67;;;16.80;55.40;;;;;;6193007;28;20133;-77
2022/09/30 16:13:24;;;;;;;8.75;2.30;;;16.80;55.40;;;;;;6203044;28;20046;-76
2022/09/30 16:16:28;;;;;;;4.53;2.17;;;16.80;55.50;;;;;;6201754;28;20060;-77
2022/09/30 16:19:30;;;;;;;7.85;2.10;;;16.80;55.50;;;;;;6203136;28;20450;-77
2022/09/30 16:22:41;;;;;;;2.95;1.92;;;16.80;55.50;;;;;;6196030;28;20034;-77
2022/09/30 16:25:43;;;;;;;7.00;2.25;;;16.80;55.60;;;;;;6195139;28;20046;-76
2022/09/30 16:28:44;;;;;;;2.50;2.00;;;16.80;55.70;;;;;;6177100;28;20075;-78